sensor_id;sensor_type;location;lat;lon;timestamp;P1;durP1;ratioP1;P2;durP2;ratioP2
78799;SDS011;68148;55.328;86.106;2023-06-01T00:01:34;20.63;;;6.60;;
78799;SDS011;68148;55.328;86.106;2023-06-01T00:04:00;17.25;;;6.63;;
78799;SDS011;68148;55.328;86.106;2023-06-01T00:06:26;20.33;;;7.57;;
78799;SDS011;68148;55.328;86.106;2023-06-01T00:08:51;25.40;;;7.25;;
78799;SDS011;68148;55.328;86.106;2023-06-01T00:11:17;22.52;;;8.18;;
78799;SDS011;68148;55.328;86.106;2023-06-01T00:13:43;33.05;;;7.57;;
78799;SDS011;68148;55.328;86.106;2023-06-01T00:16:09;23.60;;;7.43;;
78799;SDS011;68148;55.328;86.106;2023-06-01T00:18:35;19.40;;;6.20;;
78799;SDS011;68148;55.328;86.106;2023-06-01T00:21:01;29.33;;;7.10;;
78799;SDS011;68148;55.328;86.106;2023-06-01T00:23:27;14.55;;;6.13;;
78799;SDS011;68148;55.328;86.106;2023-06-01T00:25:53;17.38;;;6.25;;
78799;SDS011;68148;55.328;86.106;2023-06-01T00:28:20;19.17;;;7.28;;
78799;SDS011;68148;55.328;86.106;2023-06-01T00:30:45;20.15;;;7.32;;
78799;SDS011;68148;55.328;86.106;2023-06-01T00:33:11;22.83;;;7.60;;
78799;SDS011;68148;55.328;86.106;2023-06-01T00:35:37;18.42;;;7.28;;
78799;SDS011;68148;55.328;86.106;2023-06-01T00:38:03;20.25;;;7.53;;
78799;SDS011;68148;55.328;86.106;2023-06-01T00:40:29;22.42;;;7.32;;
78799;SDS011;68148;55.328;86.106;2023-06-01T00:42:55;20.33;;;7.57;;
78799;SDS011;68148;55.328;86.106;2023-06-01T00:45:21;15.85;;;6.70;;
78799;SDS011;68148;55.328;86.106;2023-06-01T00:47:47;16.80;;;7.28;;
78799;SDS011;68148;55.328;86.106;2023-06-01T00:50:13;17.90;;;6.90;;
78799;SDS011;68148;55.328;86.106;2023-06-01T00:52:39;30.75;;;8.07;;
78799;SDS011;68148;55.328;86.106;2023-06-01T00:57:37;27.15;;;7.82;;
78799;SDS011;68148;55.328;86.106;2023-06-01T01:00:04;20.27;;;5.95;;
78799;SDS011;68148;55.328;86.106;2023-06-01T01:02:30;22.38;;;6.35;;
78799;SDS011;68148;55.328;86.106;2023-06-01T01:04:56;21.90;;;6.65;;
78799;SDS011;68148;55.328;86.106;2023-06-01T01:07:25;28.40;;;6.07;;
78799;SDS011;68148;55.328;86.106;2023-06-01T01:10:11;21.58;;;6.28;;
78799;SDS011;68148;55.328;86.106;2023-06-01T01:12:47;26.50;;;6.72;;
78799;SDS011;68148;55.328;86.106;2023-06-01T01:18:16;22.35;;;6.55;;
78799;SDS011;68148;55.328;86.106;2023-06-01T01:20:51;17.65;;;6.43;;
78799;SDS011;68148;55.328;86.106;2023-06-01T01:29:16;22.67;;;6.40;;
78799;SDS011;68148;55.328;86.106;2023-06-01T01:31:45;14.63;;;6.28;;
78799;SDS011;68148;55.328;86.106;2023-06-01T01:34:15;17.13;;;6.57;;
78799;SDS011;68148;55.328;86.106;2023-06-01T01:36:43;23.83;;;6.32;;
78799;SDS011;68148;55.328;86.106;2023-06-01T01:39:09;19.17;;;6.07;;
78799;SDS011;68148;55.328;86.106;2023-06-01T01:41:35;18.17;;;5.72;;
78799;SDS011;68148;55.328;86.106;2023-06-01T01:44:00;15.80;;;5.75;;
78799;SDS011;68148;55.328;86.106;2023-06-01T01:46:29;15.07;;;5.22;;
78799;SDS011;68148;55.328;86.106;2023-06-01T01:52:18;18.83;;;5.78;;
78799;SDS011;68148;55.328;86.106;2023-06-01T01:54:51;22.58;;;5.68;;
78799;SDS011;68148;55.328;86.106;2023-06-01T01:57:18;14.88;;;5.32;;
78799;SDS011;68148;55.328;86.106;2023-06-01T01:59:48;14.82;;;4.93;;
78799;SDS011;68148;55.328;86.106;2023-06-01T02:02:14;15.80;;;5.35;;
78799;SDS011;68148;55.328;86.106;2023-06-01T02:04:40;13.52;;;5.18;;
78799;SDS011;68148;55.328;86.106;2023-06-01T02:07:07;13.73;;;5.38;;
78799;SDS011;68148;55.328;86.106;2023-06-01T02:09:34;15.70;;;5.85;;
78799;SDS011;68148;55.328;86.106;2023-06-01T02:12:00;18.33;;;6.30;;
78799;SDS011;68148;55.328;86.106;2023-06-01T02:14:26;19.45;;;6.22;;
78799;SDS011;68148;55.328;86.106;2023-06-01T02:16:51;22.15;;;6.78;;
78799;SDS011;68148;55.328;86.106;2023-06-01T02:19:17;22.63;;;6.28;;
78799;SDS011;68148;55.328;86.106;2023-06-01T02:21:43;17.63;;;7.10;;
78799;SDS011;68148;55.328;86.106;2023-06-01T02:24:09;21.90;;;9.82;;
78799;SDS011;68148;55.328;86.106;2023-06-01T02:26:34;20.27;;;8.65;;
78799;SDS011;68148;55.328;86.106;2023-06-01T02:29:00;22.80;;;8.80;;
78799;SDS011;68148;55.328;86.106;2023-06-01T02:31:31;24.60;;;8.05;;
78799;SDS011;68148;55.328;86.106;2023-06-01T02:33:57;18.02;;;8.77;;
78799;SDS011;68148;55.328;86.106;2023-06-01T02:36:24;19.90;;;9.23;;
78799;SDS011;68148;55.328;86.106;2023-06-01T02:38:49;23.42;;;9.68;;
78799;SDS011;68148;55.328;86.106;2023-06-01T02:41:15;20.83;;;10.27;;
78799;SDS011;68148;55.328;86.106;2023-06-01T02:43:41;25.55;;;8.90;;
78799;SDS011;68148;55.328;86.106;2023-06-01T02:46:07;18.92;;;8.52;;
78799;SDS011;68148;55.328;86.106;2023-06-01T02:48:33;26.33;;;7.65;;
78799;SDS011;68148;55.328;86.106;2023-06-01T02:50:59;21.23;;;7.57;;
78799;SDS011;68148;55.328;86.106;2023-06-01T02:53:24;18.40;;;7.32;;
78799;SDS011;68148;55.328;86.106;2023-06-01T02:55:50;21.13;;;7.90;;
78799;SDS011;68148;55.328;86.106;2023-06-01T02:58:16;18.40;;;8.82;;
78799;SDS011;68148;55.328;86.106;2023-06-01T03:00:43;23.17;;;8.07;;
78799;SDS011;68148;55.328;86.106;2023-06-01T03:03:08;17.98;;;7.32;;
78799;SDS011;68148;55.328;86.106;2023-06-01T03:05:34;19.58;;;7.10;;
78799;SDS011;68148;55.328;86.106;2023-06-01T03:08:01;25.35;;;7.40;;
78799;SDS011;68148;55.328;86.106;2023-06-01T03:10:27;18.50;;;6.95;;
78799;SDS011;68148;55.328;86.106;2023-06-01T03:12:53;27.95;;;7.47;;
78799;SDS011;68148;55.328;86.106;2023-06-01T03:15:19;20.17;;;7.20;;
78799;SDS011;68148;55.328;86.106;2023-06-01T03:17:45;20.05;;;7.25;;
78799;SDS011;68148;55.328;86.106;2023-06-01T03:20:11;19.60;;;6.93;;
78799;SDS011;68148;55.328;86.106;2023-06-01T03:22:37;15.93;;;6.32;;
78799;SDS011;68148;55.328;86.106;2023-06-01T03:25:03;31.67;;;6.88;;
78799;SDS011;68148;55.328;86.106;2023-06-01T03:27:29;12.65;;;5.10;;
78799;SDS011;68148;55.328;86.106;2023-06-01T03:29:55;19.08;;;5.97;;
78799;SDS011;68148;55.328;86.106;2023-06-01T03:32:21;18.63;;;5.30;;
78799;SDS011;68148;55.328;86.106;2023-06-01T03:34:46;23.73;;;5.75;;
78799;SDS011;68148;55.328;86.106;2023-06-01T03:37:14;14.55;;;5.68;;
78799;SDS011;68148;55.328;86.106;2023-06-01T03:39:39;21.35;;;5.65;;
78799;SDS011;68148;55.328;86.106;2023-06-01T03:42:05;13.88;;;5.10;;
78799;SDS011;68148;55.328;86.106;2023-06-01T03:44:32;15.48;;;4.88;;
78799;SDS011;68148;55.328;86.106;2023-06-01T03:46:58;18.90;;;5.18;;
78799;SDS011;68148;55.328;86.106;2023-06-01T03:49:23;22.33;;;5.07;;
78799;SDS011;68148;55.328;86.106;2023-06-01T03:51:49;25.23;;;5.82;;
78799;SDS011;68148;55.328;86.106;2023-06-01T03:54:15;27.38;;;5.68;;
78799;SDS011;68148;55.328;86.106;2023-06-01T03:56:51;9.63;;;4.70;;
78799;SDS011;68148;55.328;86.106;2023-06-01T03:59:17;16.70;;;5.28;;
78799;SDS011;68148;55.328;86.106;2023-06-01T04:01:43;11.60;;;5.18;;
78799;SDS011;68148;55.328;86.106;2023-06-01T04:04:09;22.17;;;5.20;;
78799;SDS011;68148;55.328;86.106;2023-06-01T04:06:35;17.83;;;5.18;;
78799;SDS011;68148;55.328;86.106;2023-06-01T04:09:02;10.73;;;4.68;;
78799;SDS011;68148;55.328;86.106;2023-06-01T04:11:28;19.40;;;5.10;;
78799;SDS011;68148;55.328;86.106;2023-06-01T04:13:54;12.48;;;5.18;;
78799;SDS011;68148;55.328;86.106;2023-06-01T04:16:20;12.82;;;4.95;;
78799;SDS011;68148;55.328;86.106;2023-06-01T04:18:46;11.13;;;4.63;;
78799;SDS011;68148;55.328;86.106;2023-06-01T04:21:11;17.17;;;4.57;;
78799;SDS011;68148;55.328;86.106;2023-06-01T04:23:37;14.45;;;4.95;;
78799;SDS011;68148;55.328;86.106;2023-06-01T04:26:03;11.25;;;4.32;;
78799;SDS011;68148;55.328;86.106;2023-06-01T04:28:29;12.07;;;4.63;;
78799;SDS011;68148;55.328;86.106;2023-06-01T04:30:54;12.48;;;5.10;;
78799;SDS011;68148;55.328;86.106;2023-06-01T04:33:20;14.32;;;4.70;;
78799;SDS011;68148;55.328;86.106;2023-06-01T04:35:46;22.35;;;4.50;;
78799;SDS011;68148;55.328;86.106;2023-06-01T04:38:12;15.82;;;4.85;;
78799;SDS011;68148;55.328;86.106;2023-06-01T04:40:38;22.35;;;4.72;;
78799;SDS011;68148;55.328;86.106;2023-06-01T04:43:04;13.95;;;4.47;;
78799;SDS011;68148;55.328;86.106;2023-06-01T04:45:30;13.35;;;4.97;;
78799;SDS011;68148;55.328;86.106;2023-06-01T04:47:59;14.60;;;4.53;;
78799;SDS011;68148;55.328;86.106;2023-06-01T04:50:25;18.27;;;4.88;;
78799;SDS011;68148;55.328;86.106;2023-06-01T04:52:51;19.60;;;4.75;;
78799;SDS011;68148;55.328;86.106;2023-06-01T04:55:17;24.88;;;4.88;;
78799;SDS011;68148;55.328;86.106;2023-06-01T04:57:43;32.95;;;5.70;;
78799;SDS011;68148;55.328;86.106;2023-06-01T05:00:09;15.38;;;5.28;;
78799;SDS011;68148;55.328;86.106;2023-06-01T05:02:36;12.65;;;4.85;;
78799;SDS011;68148;55.328;86.106;2023-06-01T05:05:02;14.23;;;4.72;;
78799;SDS011;68148;55.328;86.106;2023-06-01T05:07:29;19.23;;;4.55;;
78799;SDS011;68148;55.328;86.106;2023-06-01T05:09:55;12.07;;;4.65;;
78799;SDS011;68148;55.328;86.106;2023-06-01T05:12:21;9.15;;;4.47;;
78799;SDS011;68148;55.328;86.106;2023-06-01T05:14:47;15.98;;;4.50;;
78799;SDS011;68148;55.328;86.106;2023-06-01T05:17:13;18.00;;;3.88;;
78799;SDS011;68148;55.328;86.106;2023-06-01T05:19:39;10.68;;;3.35;;
78799;SDS011;68148;55.328;86.106;2023-06-01T05:22:05;18.83;;;3.80;;
78799;SDS011;68148;55.328;86.106;2023-06-01T05:24:30;10.10;;;4.25;;
78799;SDS011;68148;55.328;86.106;2023-06-01T05:26:56;10.38;;;3.30;;
78799;SDS011;68148;55.328;86.106;2023-06-01T05:29:22;18.48;;;4.75;;
78799;SDS011;68148;55.328;86.106;2023-06-01T05:31:49;11.93;;;3.53;;
78799;SDS011;68148;55.328;86.106;2023-06-01T05:34:15;10.77;;;4.38;;
78799;SDS011;68148;55.328;86.106;2023-06-01T05:36:41;19.50;;;4.43;;
78799;SDS011;68148;55.328;86.106;2023-06-01T05:39:07;16.65;;;4.13;;
78799;SDS011;68148;55.328;86.106;2023-06-01T05:41:33;11.68;;;3.92;;
78799;SDS011;68148;55.328;86.106;2023-06-01T05:43:59;14.25;;;3.92;;
78799;SDS011;68148;55.328;86.106;2023-06-01T05:46:25;13.48;;;4.03;;
78799;SDS011;68148;55.328;86.106;2023-06-01T05:48:50;7.47;;;3.78;;
78799;SDS011;68148;55.328;86.106;2023-06-01T05:51:16;8.90;;;3.17;;
78799;SDS011;68148;55.328;86.106;2023-06-01T05:53:42;7.30;;;2.53;;
78799;SDS011;68148;55.328;86.106;2023-06-01T05:56:08;9.95;;;3.08;;
78799;SDS011;68148;55.328;86.106;2023-06-01T05:58:34;10.55;;;3.83;;
78799;SDS011;68148;55.328;86.106;2023-06-01T06:01:00;14.32;;;3.72;;
78799;SDS011;68148;55.328;86.106;2023-06-01T06:03:26;19.33;;;4.18;;
78799;SDS011;68148;55.328;86.106;2023-06-01T06:05:52;20.35;;;4.28;;
78799;SDS011;68148;55.328;86.106;2023-06-01T06:08:17;24.17;;;4.75;;
78799;SDS011;68148;55.328;86.106;2023-06-01T06:10:43;22.42;;;4.72;;
78799;SDS011;68148;55.328;86.106;2023-06-01T06:13:09;9.07;;;3.55;;
78799;SDS011;68148;55.328;86.106;2023-06-01T06:15:35;6.90;;;3.45;;
78799;SDS011;68148;55.328;86.106;2023-06-01T06:18:03;6.75;;;3.40;;
78799;SDS011;68148;55.328;86.106;2023-06-01T06:20:28;4.15;;;2.80;;
78799;SDS011;68148;55.328;86.106;2023-06-01T06:22:55;7.43;;;3.35;;
78799;SDS011;68148;55.328;86.106;2023-06-01T06:25:20;6.03;;;2.92;;
78799;SDS011;68148;55.328;86.106;2023-06-01T06:27:46;3.35;;;1.95;;
78799;SDS011;68148;55.328;86.106;2023-06-01T06:30:12;5.45;;;3.25;;
78799;SDS011;68148;55.328;86.106;2023-06-01T06:32:38;8.95;;;2.97;;
78799;SDS011;68148;55.328;86.106;2023-06-01T06:35:04;4.47;;;3.03;;
78799;SDS011;68148;55.328;86.106;2023-06-01T06:37:30;10.95;;;4.25;;
78799;SDS011;68148;55.328;86.106;2023-06-01T06:39:56;6.50;;;3.42;;
78799;SDS011;68148;55.328;86.106;2023-06-01T06:42:23;6.93;;;4.00;;
78799;SDS011;68148;55.328;86.106;2023-06-01T06:44:49;8.95;;;4.50;;
78799;SDS011;68148;55.328;86.106;2023-06-01T06:47:15;9.32;;;4.80;;
78799;SDS011;68148;55.328;86.106;2023-06-01T06:49:41;9.25;;;4.90;;
78799;SDS011;68148;55.328;86.106;2023-06-01T06:52:08;13.02;;;5.28;;
78799;SDS011;68148;55.328;86.106;2023-06-01T06:54:34;9.45;;;5.00;;
78799;SDS011;68148;55.328;86.106;2023-06-01T06:57:01;14.60;;;5.68;;
78799;SDS011;68148;55.328;86.106;2023-06-01T06:59:26;8.43;;;5.00;;
78799;SDS011;68148;55.328;86.106;2023-06-01T07:01:52;11.50;;;4.15;;
78799;SDS011;68148;55.328;86.106;2023-06-01T07:04:18;13.52;;;4.22;;
78799;SDS011;68148;55.328;86.106;2023-06-01T07:06:44;10.75;;;3.95;;
78799;SDS011;68148;55.328;86.106;2023-06-01T07:09:10;10.77;;;4.28;;
78799;SDS011;68148;55.328;86.106;2023-06-01T07:11:35;9.85;;;4.25;;
78799;SDS011;68148;55.328;86.106;2023-06-01T07:14:01;11.15;;;4.43;;
78799;SDS011;68148;55.328;86.106;2023-06-01T07:16:27;12.68;;;4.53;;
78799;SDS011;68148;55.328;86.106;2023-06-01T07:18:53;9.23;;;4.63;;
78799;SDS011;68148;55.328;86.106;2023-06-01T07:21:18;9.73;;;4.22;;
78799;SDS011;68148;55.328;86.106;2023-06-01T07:23:45;13.93;;;5.25;;
78799;SDS011;68148;55.328;86.106;2023-06-01T07:26:11;9.23;;;3.40;;
78799;SDS011;68148;55.328;86.106;2023-06-01T07:28:37;6.60;;;3.65;;
78799;SDS011;68148;55.328;86.106;2023-06-01T07:31:03;8.73;;;3.65;;
78799;SDS011;68148;55.328;86.106;2023-06-01T07:33:30;10.55;;;4.00;;
78799;SDS011;68148;55.328;86.106;2023-06-01T07:35:56;6.35;;;3.45;;
78799;SDS011;68148;55.328;86.106;2023-06-01T07:38:22;7.85;;;4.13;;
78799;SDS011;68148;55.328;86.106;2023-06-01T07:40:49;8.40;;;3.80;;
78799;SDS011;68148;55.328;86.106;2023-06-01T07:45:41;9.68;;;3.70;;
78799;SDS011;68148;55.328;86.106;2023-06-01T07:48:07;7.50;;;3.90;;
78799;SDS011;68148;55.328;86.106;2023-06-01T07:50:33;8.15;;;3.88;;
78799;SDS011;68148;55.328;86.106;2023-06-01T07:52:59;10.05;;;4.10;;
78799;SDS011;68148;55.328;86.106;2023-06-01T07:55:25;9.35;;;4.13;;
78799;SDS011;68148;55.328;86.106;2023-06-01T07:57:51;16.67;;;4.35;;
78799;SDS011;68148;55.328;86.106;2023-06-01T08:00:17;7.97;;;3.85;;
78799;SDS011;68148;55.328;86.106;2023-06-01T08:02:44;10.63;;;4.20;;
78799;SDS011;68148;55.328;86.106;2023-06-01T08:05:10;5.80;;;2.83;;
78799;SDS011;68148;55.328;86.106;2023-06-01T08:07:36;9.60;;;4.22;;
78799;SDS011;68148;55.328;86.106;2023-06-01T08:10:02;5.65;;;2.97;;
78799;SDS011;68148;55.328;86.106;2023-06-01T08:12:40;6.03;;;3.10;;
78799;SDS011;68148;55.328;86.106;2023-06-01T08:15:06;9.20;;;3.78;;
78799;SDS011;68148;55.328;86.106;2023-06-01T08:17:32;11.40;;;3.72;;
78799;SDS011;68148;55.328;86.106;2023-06-01T08:19:58;9.05;;;3.15;;
78799;SDS011;68148;55.328;86.106;2023-06-01T08:22:24;9.95;;;3.22;;
78799;SDS011;68148;55.328;86.106;2023-06-01T08:24:50;6.18;;;3.08;;
78799;SDS011;68148;55.328;86.106;2023-06-01T08:27:16;7.72;;;3.78;;
78799;SDS011;68148;55.328;86.106;2023-06-01T08:29:46;11.02;;;3.15;;
78799;SDS011;68148;55.328;86.106;2023-06-01T08:32:13;9.73;;;3.88;;
78799;SDS011;68148;55.328;86.106;2023-06-01T08:34:40;7.68;;;3.45;;
78799;SDS011;68148;55.328;86.106;2023-06-01T08:37:09;8.25;;;3.95;;
78799;SDS011;68148;55.328;86.106;2023-06-01T08:39:35;7.10;;;3.42;;
78799;SDS011;68148;55.328;86.106;2023-06-01T08:44:48;6.00;;;3.25;;
78799;SDS011;68148;55.328;86.106;2023-06-01T08:47:19;7.38;;;3.42;;
78799;SDS011;68148;55.328;86.106;2023-06-01T08:49:46;9.55;;;3.50;;
78799;SDS011;68148;55.328;86.106;2023-06-01T08:52:13;10.07;;;3.53;;
78799;SDS011;68148;55.328;86.106;2023-06-01T08:54:43;5.70;;;2.95;;
78799;SDS011;68148;55.328;86.106;2023-06-01T08:57:09;16.70;;;4.50;;
78799;SDS011;68148;55.328;86.106;2023-06-01T08:59:36;12.63;;;3.50;;
78799;SDS011;68148;55.328;86.106;2023-06-01T09:02:02;6.80;;;3.55;;
78799;SDS011;68148;55.328;86.106;2023-06-01T09:04:28;7.50;;;3.20;;
78799;SDS011;68148;55.328;86.106;2023-06-01T09:06:54;7.68;;;3.78;;
78799;SDS011;68148;55.328;86.106;2023-06-01T09:09:20;10.40;;;3.50;;
78799;SDS011;68148;55.328;86.106;2023-06-01T09:11:46;7.00;;;4.07;;
78799;SDS011;68148;55.328;86.106;2023-06-01T09:14:22;9.57;;;4.15;;
78799;SDS011;68148;55.328;86.106;2023-06-01T09:16:49;6.82;;;3.20;;
78799;SDS011;68148;55.328;86.106;2023-06-01T09:19:16;7.07;;;4.35;;
78799;SDS011;68148;55.328;86.106;2023-06-01T09:21:55;6.03;;;3.78;;
78799;SDS011;68148;55.328;86.106;2023-06-01T09:24:25;8.32;;;4.03;;
78799;SDS011;68148;55.328;86.106;2023-06-01T09:26:59;6.50;;;3.85;;
78799;SDS011;68148;55.328;86.106;2023-06-01T09:29:25;9.23;;;4.15;;
78799;SDS011;68148;55.328;86.106;2023-06-01T09:31:52;9.32;;;4.47;;
78799;SDS011;68148;55.328;86.106;2023-06-01T09:34:19;6.22;;;3.70;;
78799;SDS011;68148;55.328;86.106;2023-06-01T09:36:47;8.93;;;3.38;;
78799;SDS011;68148;55.328;86.106;2023-06-01T09:39:14;11.80;;;4.13;;
78799;SDS011;68148;55.328;86.106;2023-06-01T09:41:45;9.40;;;4.03;;
78799;SDS011;68148;55.328;86.106;2023-06-01T09:46:53;6.68;;;3.42;;
78799;SDS011;68148;55.328;86.106;2023-06-01T09:49:27;9.02;;;4.45;;
78799;SDS011;68148;55.328;86.106;2023-06-01T09:54:31;20.23;;;5.60;;
78799;SDS011;68148;55.328;86.106;2023-06-01T09:56:58;14.52;;;4.03;;
78799;SDS011;68148;55.328;86.106;2023-06-01T09:59:25;13.50;;;4.53;;
78799;SDS011;68148;55.328;86.106;2023-06-01T10:01:53;13.27;;;4.28;;
78799;SDS011;68148;55.328;86.106;2023-06-01T10:04:26;13.32;;;4.40;;
78799;SDS011;68148;55.328;86.106;2023-06-01T10:06:54;11.93;;;4.18;;
78799;SDS011;68148;55.328;86.106;2023-06-01T10:09:21;15.25;;;4.45;;
78799;SDS011;68148;55.328;86.106;2023-06-01T10:11:49;9.57;;;3.80;;
78799;SDS011;68148;55.328;86.106;2023-06-01T10:14:17;12.98;;;4.47;;
78799;SDS011;68148;55.328;86.106;2023-06-01T10:16:43;12.07;;;3.63;;
78799;SDS011;68148;55.328;86.106;2023-06-01T10:19:10;9.32;;;4.47;;
78799;SDS011;68148;55.328;86.106;2023-06-01T10:21:37;8.52;;;3.78;;
78799;SDS011;68148;55.328;86.106;2023-06-01T10:24:03;10.13;;;3.90;;
78799;SDS011;68148;55.328;86.106;2023-06-01T10:26:30;6.22;;;3.60;;
78799;SDS011;68148;55.328;86.106;2023-06-01T10:29:02;13.65;;;3.63;;
78799;SDS011;68148;55.328;86.106;2023-06-01T10:31:35;11.93;;;4.10;;
78799;SDS011;68148;55.328;86.106;2023-06-01T10:34:03;5.97;;;3.28;;
78799;SDS011;68148;55.328;86.106;2023-06-01T10:39:24;10.57;;;3.90;;
78799;SDS011;68148;55.328;86.106;2023-06-01T10:41:51;7.88;;;4.30;;
78799;SDS011;68148;55.328;86.106;2023-06-01T10:52:29;9.63;;;4.03;;
78799;SDS011;68148;55.328;86.106;2023-06-01T10:55:21;7.78;;;3.60;;
78799;SDS011;68148;55.328;86.106;2023-06-01T10:57:46;8.20;;;3.42;;
78799;SDS011;68148;55.328;86.106;2023-06-01T11:00:13;7.18;;;3.60;;
78799;SDS011;68148;55.328;86.106;2023-06-01T11:02:50;6.35;;;3.83;;
78799;SDS011;68148;55.328;86.106;2023-06-01T11:13:26;8.15;;;3.72;;
78799;SDS011;68148;55.328;86.106;2023-06-01T11:21:11;6.55;;;4.20;;
78799;SDS011;68148;55.328;86.106;2023-06-01T11:23:41;7.03;;;3.70;;
78799;SDS011;68148;55.328;86.106;2023-06-01T11:26:08;9.00;;;4.15;;
78799;SDS011;68148;55.328;86.106;2023-06-01T11:28:34;9.90;;;3.80;;
78799;SDS011;68148;55.328;86.106;2023-06-01T11:31:01;6.75;;;3.22;;
78799;SDS011;68148;55.328;86.106;2023-06-01T11:33:28;7.45;;;3.80;;
78799;SDS011;68148;55.328;86.106;2023-06-01T11:36:01;8.93;;;3.67;;
78799;SDS011;68148;55.328;86.106;2023-06-01T11:38:34;7.28;;;3.45;;
78799;SDS011;68148;55.328;86.106;2023-06-01T11:41:02;7.70;;;3.85;;
78799;SDS011;68148;55.328;86.106;2023-06-01T11:43:29;27.25;;;4.75;;
78799;SDS011;68148;55.328;86.106;2023-06-01T11:46:03;12.00;;;4.43;;
78799;SDS011;68148;55.328;86.106;2023-06-01T11:48:30;16.63;;;4.30;;
78799;SDS011;68148;55.328;86.106;2023-06-01T11:50:57;26.17;;;4.55;;
78799;SDS011;68148;55.328;86.106;2023-06-01T11:53:23;23.05;;;4.43;;
78799;SDS011;68148;55.328;86.106;2023-06-01T11:55:55;11.60;;;4.38;;
78799;SDS011;68148;55.328;86.106;2023-06-01T11:58:25;23.85;;;5.10;;
78799;SDS011;68148;55.328;86.106;2023-06-01T12:00:56;13.32;;;4.50;;
78799;SDS011;68148;55.328;86.106;2023-06-01T12:03:23;12.32;;;4.03;;
78799;SDS011;68148;55.328;86.106;2023-06-01T12:08:20;12.00;;;4.03;;
78799;SDS011;68148;55.328;86.106;2023-06-01T12:10:48;15.63;;;3.88;;
78799;SDS011;68148;55.328;86.106;2023-06-01T12:13:16;8.27;;;3.92;;
78799;SDS011;68148;55.328;86.106;2023-06-01T12:15:43;8.38;;;4.07;;
78799;SDS011;68148;55.328;86.106;2023-06-01T12:20:36;9.60;;;3.95;;
78799;SDS011;68148;55.328;86.106;2023-06-01T12:23:15;16.98;;;5.28;;
78799;SDS011;68148;55.328;86.106;2023-06-01T12:25:52;19.58;;;7.13;;
78799;SDS011;68148;55.328;86.106;2023-06-01T12:28:21;21.63;;;6.40;;
78799;SDS011;68148;55.328;86.106;2023-06-01T12:30:48;10.27;;;5.35;;
78799;SDS011;68148;55.328;86.106;2023-06-01T12:33:33;6.75;;;4.25;;
78799;SDS011;68148;55.328;86.106;2023-06-01T12:36:04;10.43;;;4.90;;
78799;SDS011;68148;55.328;86.106;2023-06-01T12:38:34;9.95;;;4.20;;
78799;SDS011;68148;55.328;86.106;2023-06-01T12:41:10;11.55;;;6.22;;
78799;SDS011;68148;55.328;86.106;2023-06-01T12:43:37;12.32;;;4.63;;
78799;SDS011;68148;55.328;86.106;2023-06-01T12:46:04;11.32;;;4.85;;
78799;SDS011;68148;55.328;86.106;2023-06-01T12:48:31;21.23;;;4.82;;
78799;SDS011;68148;55.328;86.106;2023-06-01T12:51:01;14.00;;;4.22;;
78799;SDS011;68148;55.328;86.106;2023-06-01T12:53:28;11.93;;;4.78;;
78799;SDS011;68148;55.328;86.106;2023-06-01T12:55:54;15.32;;;4.50;;
78799;SDS011;68148;55.328;86.106;2023-06-01T12:58:20;12.60;;;4.60;;
78799;SDS011;68148;55.328;86.106;2023-06-01T13:00:47;9.40;;;4.57;;
78799;SDS011;68148;55.328;86.106;2023-06-01T13:03:13;19.52;;;4.93;;
78799;SDS011;68148;55.328;86.106;2023-06-01T13:05:41;20.52;;;5.47;;
78799;SDS011;68148;55.328;86.106;2023-06-01T13:08:09;9.85;;;5.47;;
78799;SDS011;68148;55.328;86.106;2023-06-01T13:10:35;13.25;;;4.82;;
78799;SDS011;68148;55.328;86.106;2023-06-01T13:13:00;13.40;;;5.07;;
78799;SDS011;68148;55.328;86.106;2023-06-01T13:15:27;17.35;;;6.32;;
78799;SDS011;68148;55.328;86.106;2023-06-01T13:17:53;8.23;;;3.53;;
78799;SDS011;68148;55.328;86.106;2023-06-01T13:20:19;19.65;;;7.32;;
78799;SDS011;68148;55.328;86.106;2023-06-01T13:22:45;13.95;;;6.88;;
78799;SDS011;68148;55.328;86.106;2023-06-01T13:25:11;12.57;;;4.90;;
78799;SDS011;68148;55.328;86.106;2023-06-01T13:27:37;18.73;;;7.95;;
78799;SDS011;68148;55.328;86.106;2023-06-01T13:30:03;21.83;;;8.30;;
78799;SDS011;68148;55.328;86.106;2023-06-01T13:32:31;9.55;;;4.53;;
78799;SDS011;68148;55.328;86.106;2023-06-01T13:35:01;14.55;;;4.68;;
78799;SDS011;68148;55.328;86.106;2023-06-01T13:37:26;8.45;;;3.90;;
78799;SDS011;68148;55.328;86.106;2023-06-01T13:39:52;10.02;;;4.50;;
78799;SDS011;68148;55.328;86.106;2023-06-01T13:42:18;19.05;;;10.23;;
78799;SDS011;68148;55.328;86.106;2023-06-01T13:44:44;14.52;;;4.97;;
78799;SDS011;68148;55.328;86.106;2023-06-01T13:47:10;6.93;;;4.00;;
78799;SDS011;68148;55.328;86.106;2023-06-01T13:49:36;14.48;;;5.07;;
78799;SDS011;68148;55.328;86.106;2023-06-01T13:52:02;9.27;;;4.78;;
78799;SDS011;68148;55.328;86.106;2023-06-01T13:54:29;6.93;;;4.38;;
78799;SDS011;68148;55.328;86.106;2023-06-01T13:59:22;16.20;;;5.45;;
78799;SDS011;68148;55.328;86.106;2023-06-01T14:01:48;14.05;;;5.45;;
78799;SDS011;68148;55.328;86.106;2023-06-01T14:04:14;15.95;;;8.18;;
78799;SDS011;68148;55.328;86.106;2023-06-01T14:06:39;19.23;;;7.35;;
78799;SDS011;68148;55.328;86.106;2023-06-01T14:09:06;24.00;;;7.25;;
78799;SDS011;68148;55.328;86.106;2023-06-01T14:11:31;19.63;;;7.93;;
78799;SDS011;68148;55.328;86.106;2023-06-01T14:13:57;32.13;;;8.45;;
78799;SDS011;68148;55.328;86.106;2023-06-01T14:16:24;37.10;;;9.68;;
78799;SDS011;68148;55.328;86.106;2023-06-01T14:18:50;42.50;;;10.75;;
78799;SDS011;68148;55.328;86.106;2023-06-01T14:21:16;52.55;;;10.48;;
78799;SDS011;68148;55.328;86.106;2023-06-01T14:23:42;47.05;;;11.45;;
78799;SDS011;68148;55.328;86.106;2023-06-01T14:26:08;54.45;;;13.20;;
78799;SDS011;68148;55.328;86.106;2023-06-01T14:28:33;47.17;;;13.15;;
78799;SDS011;68148;55.328;86.106;2023-06-01T14:30:59;59.03;;;14.57;;
78799;SDS011;68148;55.328;86.106;2023-06-01T14:33:25;50.72;;;15.82;;
78799;SDS011;68148;55.328;86.106;2023-06-01T14:35:51;76.35;;;15.80;;
78799;SDS011;68148;55.328;86.106;2023-06-01T14:38:17;51.50;;;15.00;;
78799;SDS011;68148;55.328;86.106;2023-06-01T14:40:43;62.20;;;16.13;;
78799;SDS011;68148;55.328;86.106;2023-06-01T14:43:09;55.55;;;15.10;;
78799;SDS011;68148;55.328;86.106;2023-06-01T14:45:35;51.40;;;15.75;;
78799;SDS011;68148;55.328;86.106;2023-06-01T14:48:01;46.50;;;16.30;;
78799;SDS011;68148;55.328;86.106;2023-06-01T14:50:27;47.58;;;16.23;;
78799;SDS011;68148;55.328;86.106;2023-06-01T14:52:53;49.72;;;16.02;;
78799;SDS011;68148;55.328;86.106;2023-06-01T14:55:19;44.85;;;17.40;;
78799;SDS011;68148;55.328;86.106;2023-06-01T14:57:45;46.30;;;15.82;;
78799;SDS011;68148;55.328;86.106;2023-06-01T15:00:11;36.55;;;14.18;;
78799;SDS011;68148;55.328;86.106;2023-06-01T15:02:38;38.65;;;12.65;;
78799;SDS011;68148;55.328;86.106;2023-06-01T15:05:05;44.30;;;12.93;;
78799;SDS011;68148;55.328;86.106;2023-06-01T15:07:31;27.65;;;12.10;;
78799;SDS011;68148;55.328;86.106;2023-06-01T15:09:57;35.08;;;11.68;;
78799;SDS011;68148;55.328;86.106;2023-06-01T15:12:22;43.10;;;10.38;;
78799;SDS011;68148;55.328;86.106;2023-06-01T15:14:48;37.67;;;11.50;;
78799;SDS011;68148;55.328;86.106;2023-06-01T15:17:14;40.63;;;12.15;;
78799;SDS011;68148;55.328;86.106;2023-06-01T15:19:40;38.05;;;11.68;;